sensor_id;sensor_type;location;lat;lon;timestamp;P1;durP1;ratioP1;P2;durP2;ratioP2
40649;SDS011;26342;42.826;23.992;2022-11-15T00:00:51;2.38;;;1.52;;
40649;SDS011;26342;42.826;23.992;2022-11-15T00:03:18;4.00;;;1.42;;
40649;SDS011;26342;42.826;23.992;2022-11-15T00:05:45;4.32;;;1.67;;
40649;SDS011;26342;42.826;23.992;2022-11-15T00:08:10;2.35;;;2.15;;
40649;SDS011;26342;42.826;23.992;2022-11-15T00:10:36;3.67;;;2.30;;
40649;SDS011;26342;42.826;23.992;2022-11-15T00:13:09;2.45;;;1.70;;
40649;SDS011;26342;42.826;23.992;2022-11-15T00:15:39;3.65;;;1.50;;
40649;SDS011;26342;42.826;23.992;2022-11-15T00:18:06;2.58;;;2.08;;
40649;SDS011;26342;42.826;23.992;2022-11-15T00:20:37;2.63;;;2.05;;
40649;SDS011;26342;42.826;23.992;2022-11-15T00:23:03;4.63;;;2.03;;
40649;SDS011;26342;42.826;23.992;2022-11-15T00:25:29;5.57;;;3.08;;
40649;SDS011;26342;42.826;23.992;2022-11-15T00:27:55;1.85;;;1.55;;
40649;SDS011;26342;42.826;23.992;2022-11-15T00:30:22;1.38;;;1.15;;
40649;SDS011;26342;42.826;23.992;2022-11-15T00:32:48;2.45;;;1.77;;
40649;SDS011;26342;42.826;23.992;2022-11-15T00:35:14;4.15;;;0.98;;
40649;SDS011;26342;42.826;23.992;2022-11-15T00:37:39;4.90;;;1.63;;
40649;SDS011;26342;42.826;23.992;2022-11-15T00:40:05;1.55;;;1.05;;
40649;SDS011;26342;42.826;23.992;2022-11-15T00:42:31;4.68;;;3.20;;
40649;SDS011;26342;42.826;23.992;2022-11-15T00:44:56;2.28;;;2.03;;
40649;SDS011;26342;42.826;23.992;2022-11-15T00:47:21;2.42;;;1.50;;
40649;SDS011;26342;42.826;23.992;2022-11-15T00:49:47;4.10;;;2.92;;
40649;SDS011;26342;42.826;23.992;2022-11-15T00:52:12;3.70;;;1.33;;
40649;SDS011;26342;42.826;23.992;2022-11-15T00:54:37;4.00;;;2.72;;
40649;SDS011;26342;42.826;23.992;2022-11-15T00:57:03;2.72;;;1.33;;
40649;SDS011;26342;42.826;23.992;2022-11-15T00:59:29;3.25;;;2.17;;
40649;SDS011;26342;42.826;23.992;2022-11-15T01:01:54;1.95;;;1.80;;
40649;SDS011;26342;42.826;23.992;2022-11-15T01:04:19;1.15;;;1.00;;
40649;SDS011;26342;42.826;23.992;2022-11-15T01:06:45;1.85;;;0.80;;
40649;SDS011;26342;42.826;23.992;2022-11-15T01:09:10;1.65;;;1.55;;
40649;SDS011;26342;42.826;23.992;2022-11-15T01:11:35;2.65;;;1.58;;
40649;SDS011;26342;42.826;23.992;2022-11-15T01:14:01;4.78;;;2.85;;
40649;SDS011;26342;42.826;23.992;2022-11-15T01:16:26;3.83;;;1.58;;
40649;SDS011;26342;42.826;23.992;2022-11-15T01:18:52;3.67;;;2.40;;
40649;SDS011;26342;42.826;23.992;2022-11-15T01:21:18;3.47;;;2.67;;
40649;SDS011;26342;42.826;23.992;2022-11-15T01:23:44;2.58;;;1.52;;
40649;SDS011;26342;42.826;23.992;2022-11-15T01:26:11;2.30;;;1.83;;
40649;SDS011;26342;42.826;23.992;2022-11-15T01:28:39;7.43;;;2.97;;
40649;SDS011;26342;42.826;23.992;2022-11-15T01:31:07;2.65;;;1.27;;
40649;SDS011;26342;42.826;23.992;2022-11-15T01:33:36;3.22;;;2.38;;
40649;SDS011;26342;42.826;23.992;2022-11-15T01:36:06;3.92;;;1.50;;
40649;SDS011;26342;42.826;23.992;2022-11-15T01:38:34;1.83;;;1.42;;
40649;SDS011;26342;42.826;23.992;2022-11-15T01:40:59;2.47;;;1.13;;
40649;SDS011;26342;42.826;23.992;2022-11-15T01:43:29;2.35;;;1.58;;
40649;SDS011;26342;42.826;23.992;2022-11-15T01:46:02;3.53;;;2.80;;
40649;SDS011;26342;42.826;23.992;2022-11-15T01:48:48;1.70;;;1.00;;
40649;SDS011;26342;42.826;23.992;2022-11-15T01:51:17;0.57;;;0.57;;
40649;SDS011;26342;42.826;23.992;2022-11-15T01:53:45;0.80;;;0.63;;
40649;SDS011;26342;42.826;23.992;2022-11-15T01:56:14;3.60;;;1.65;;
40649;SDS011;26342;42.826;23.992;2022-11-15T01:58:44;1.27;;;1.10;;
40649;SDS011;26342;42.826;23.992;2022-11-15T02:01:11;3.78;;;1.23;;
40649;SDS011;26342;42.826;23.992;2022-11-15T02:03:40;3.17;;;1.63;;
40649;SDS011;26342;42.826;23.992;2022-11-15T02:06:10;0.95;;;0.95;;
40649;SDS011;26342;42.826;23.992;2022-11-15T02:08:36;1.40;;;1.30;;
40649;SDS011;26342;42.826;23.992;2022-11-15T02:11:03;1.65;;;1.30;;
40649;SDS011;26342;42.826;23.992;2022-11-15T02:13:32;2.47;;;1.52;;
40649;SDS011;26342;42.826;23.992;2022-11-15T02:16:13;1.52;;;1.42;;
40649;SDS011;26342;42.826;23.992;2022-11-15T02:21:48;1.60;;;1.50;;
40649;SDS011;26342;42.826;23.992;2022-11-15T02:27:29;0.55;;;0.32;;
40649;SDS011;26342;42.826;23.992;2022-11-15T02:30:23;1.52;;;1.42;;
40649;SDS011;26342;42.826;23.992;2022-11-15T02:33:00;0.93;;;0.90;;
40649;SDS011;26342;42.826;23.992;2022-11-15T02:35:52;0.88;;;0.73;;
40649;SDS011;26342;42.826;23.992;2022-11-15T02:38:29;2.20;;;0.98;;
40649;SDS011;26342;42.826;23.992;2022-11-15T02:41:10;1.80;;;1.65;;
40649;SDS011;26342;42.826;23.992;2022-11-15T02:43:42;1.02;;;1.00;;
40649;SDS011;26342;42.826;23.992;2022-11-15T02:46:36;1.42;;;1.33;;
40649;SDS011;26342;42.826;23.992;2022-11-15T02:49:26;1.48;;;1.15;;
40649;SDS011;26342;42.826;23.992;2022-11-15T02:51:54;1.90;;;1.15;;
40649;SDS011;26342;42.826;23.992;2022-11-15T02:54:25;2.55;;;1.95;;
40649;SDS011;26342;42.826;23.992;2022-11-15T02:56:54;1.75;;;1.00;;
40649;SDS011;26342;42.826;23.992;2022-11-15T02:59:37;1.13;;;1.10;;
40649;SDS011;26342;42.826;23.992;2022-11-15T03:05:04;2.70;;;1.60;;
40649;SDS011;26342;42.826;23.992;2022-11-15T03:13:15;3.20;;;1.85;;
40649;SDS011;26342;42.826;23.992;2022-11-15T03:16:08;3.42;;;1.33;;
40649;SDS011;26342;42.826;23.992;2022-11-15T03:18:43;8.95;;;2.40;;
40649;SDS011;26342;42.826;23.992;2022-11-15T03:21:13;1.30;;;1.20;;
40649;SDS011;26342;42.826;23.992;2022-11-15T03:23:40;3.97;;;0.88;;
40649;SDS011;26342;42.826;23.992;2022-11-15T03:26:08;0.70;;;0.68;;
40649;SDS011;26342;42.826;23.992;2022-11-15T03:28:38;5.38;;;2.17;;
40649;SDS011;26342;42.826;23.992;2022-11-15T03:31:08;0.52;;;0.52;;
40649;SDS011;26342;42.826;23.992;2022-11-15T03:33:55;8.02;;;2.22;;
40649;SDS011;26342;42.826;23.992;2022-11-15T03:36:23;1.10;;;1.00;;
40649;SDS011;26342;42.826;23.992;2022-11-15T03:38:53;1.23;;;1.23;;
40649;SDS011;26342;42.826;23.992;2022-11-15T03:41:22;3.25;;;1.42;;
40649;SDS011;26342;42.826;23.992;2022-11-15T03:43:56;0.73;;;0.73;;
40649;SDS011;26342;42.826;23.992;2022-11-15T03:46:33;0.50;;;0.50;;
40649;SDS011;26342;42.826;23.992;2022-11-15T03:49:25;2.40;;;1.38;;
40649;SDS011;26342;42.826;23.992;2022-11-15T03:51:56;1.83;;;1.33;;
40649;SDS011;26342;42.826;23.992;2022-11-15T03:54:22;0.98;;;0.65;;
40649;SDS011;26342;42.826;23.992;2022-11-15T03:56:48;2.63;;;1.75;;
40649;SDS011;26342;42.826;23.992;2022-11-15T03:59:13;1.30;;;0.95;;
40649;SDS011;26342;42.826;23.992;2022-11-15T04:01:38;0.73;;;0.73;;
40649;SDS011;26342;42.826;23.992;2022-11-15T04:04:04;1.35;;;1.25;;
40649;SDS011;26342;42.826;23.992;2022-11-15T04:06:29;2.15;;;1.15;;
40649;SDS011;26342;42.826;23.992;2022-11-15T04:08:54;2.45;;;2.05;;
40649;SDS011;26342;42.826;23.992;2022-11-15T04:11:20;3.55;;;1.27;;
40649;SDS011;26342;42.826;23.992;2022-11-15T04:13:45;9.52;;;1.77;;
40649;SDS011;26342;42.826;23.992;2022-11-15T04:16:11;1.73;;;1.00;;
40649;SDS011;26342;42.826;23.992;2022-11-15T04:18:36;1.45;;;0.68;;
40649;SDS011;26342;42.826;23.992;2022-11-15T04:21:02;5.70;;;1.05;;
40649;SDS011;26342;42.826;23.992;2022-11-15T04:23:46;0.75;;;0.75;;
40649;SDS011;26342;42.826;23.992;2022-11-15T04:26:30;1.48;;;1.15;;
40649;SDS011;26342;42.826;23.992;2022-11-15T04:28:55;0.70;;;0.60;;
40649;SDS011;26342;42.826;23.992;2022-11-15T04:31:39;2.22;;;1.35;;
40649;SDS011;26342;42.826;23.992;2022-11-15T04:34:04;1.77;;;1.02;;
40649;SDS011;26342;42.826;23.992;2022-11-15T04:36:30;1.38;;;1.25;;
40649;SDS011;26342;42.826;23.992;2022-11-15T04:39:14;2.45;;;1.52;;
40649;SDS011;26342;42.826;23.992;2022-11-15T04:41:40;1.48;;;0.98;;
40649;SDS011;26342;42.826;23.992;2022-11-15T04:44:05;3.50;;;1.70;;
40649;SDS011;26342;42.826;23.992;2022-11-15T04:46:30;1.05;;;0.95;;
40649;SDS011;26342;42.826;23.992;2022-11-15T04:48:56;2.35;;;1.13;;
40649;SDS011;26342;42.826;23.992;2022-11-15T04:51:21;1.10;;;0.80;;
40649;SDS011;26342;42.826;23.992;2022-11-15T04:53:47;0.55;;;0.55;;
40649;SDS011;26342;42.826;23.992;2022-11-15T04:56:12;0.80;;;0.80;;
40649;SDS011;26342;42.826;23.992;2022-11-15T04:58:38;4.43;;;3.47;;
40649;SDS011;26342;42.826;23.992;2022-11-15T05:01:10;2.78;;;1.95;;
40649;SDS011;26342;42.826;23.992;2022-11-15T05:03:37;9.02;;;3.70;;
40649;SDS011;26342;42.826;23.992;2022-11-15T05:06:21;3.50;;;2.58;;
40649;SDS011;26342;42.826;23.992;2022-11-15T05:08:46;6.00;;;3.05;;
40649;SDS011;26342;42.826;23.992;2022-11-15T05:11:12;2.95;;;1.95;;
40649;SDS011;26342;42.826;23.992;2022-11-15T05:13:37;3.92;;;2.75;;
40649;SDS011;26342;42.826;23.992;2022-11-15T05:16:02;4.97;;;1.90;;
40649;SDS011;26342;42.826;23.992;2022-11-15T05:18:28;3.47;;;2.05;;
40649;SDS011;26342;42.826;23.992;2022-11-15T05:20:53;0.90;;;0.60;;
40649;SDS011;26342;42.826;23.992;2022-11-15T05:23:19;1.85;;;1.33;;
40649;SDS011;26342;42.826;23.992;2022-11-15T05:25:44;0.47;;;0.47;;
40649;SDS011;26342;42.826;23.992;2022-11-15T05:28:10;1.45;;;1.35;;
40649;SDS011;26342;42.826;23.992;2022-11-15T05:30:35;4.88;;;2.92;;
40649;SDS011;26342;42.826;23.992;2022-11-15T05:33:01;6.32;;;4.13;;
40649;SDS011;26342;42.826;23.992;2022-11-15T05:35:30;2.22;;;1.40;;
40649;SDS011;26342;42.826;23.992;2022-11-15T05:38:02;0.90;;;0.73;;
40649;SDS011;26342;42.826;23.992;2022-11-15T05:40:27;0.82;;;0.80;;
40649;SDS011;26342;42.826;23.992;2022-11-15T05:42:55;2.28;;;1.98;;
40649;SDS011;26342;42.826;23.992;2022-11-15T05:45:21;3.90;;;2.05;;
40649;SDS011;26342;42.826;23.992;2022-11-15T05:47:48;1.77;;;1.60;;
40649;SDS011;26342;42.826;23.992;2022-11-15T05:50:15;3.40;;;1.85;;
40649;SDS011;26342;42.826;23.992;2022-11-15T05:52:43;4.32;;;1.85;;
40649;SDS011;26342;42.826;23.992;2022-11-15T05:55:10;1.27;;;0.90;;
40649;SDS011;26342;42.826;23.992;2022-11-15T05:57:36;1.02;;;0.98;;
40649;SDS011;26342;42.826;23.992;2022-11-15T06:00:03;2.17;;;0.90;;
40649;SDS011;26342;42.826;23.992;2022-11-15T06:02:29;2.22;;;0.90;;
40649;SDS011;26342;42.826;23.992;2022-11-15T06:04:54;1.10;;;0.57;;
40649;SDS011;26342;42.826;23.992;2022-11-15T06:07:20;2.00;;;1.30;;
40649;SDS011;26342;42.826;23.992;2022-11-15T06:09:45;8.88;;;4.57;;
40649;SDS011;26342;42.826;23.992;2022-11-15T06:12:11;6.18;;;3.88;;
40649;SDS011;26342;42.826;23.992;2022-11-15T06:14:36;1.92;;;1.52;;
40649;SDS011;26342;42.826;23.992;2022-11-15T06:17:02;4.22;;;2.10;;
40649;SDS011;26342;42.826;23.992;2022-11-15T06:19:27;1.13;;;0.70;;
40649;SDS011;26342;42.826;23.992;2022-11-15T06:21:57;4.93;;;2.05;;
40649;SDS011;26342;42.826;23.992;2022-11-15T06:24:24;1.20;;;0.82;;
40649;SDS011;26342;42.826;23.992;2022-11-15T06:26:49;4.53;;;2.58;;
40649;SDS011;26342;42.826;23.992;2022-11-15T06:29:15;2.22;;;2.03;;
40649;SDS011;26342;42.826;23.992;2022-11-15T06:31:40;3.63;;;2.85;;
40649;SDS011;26342;42.826;23.992;2022-11-15T06:34:06;1.40;;;1.30;;
40649;SDS011;26342;42.826;23.992;2022-11-15T06:36:31;2.53;;;2.33;;
40649;SDS011;26342;42.826;23.992;2022-11-15T06:38:59;4.55;;;1.25;;
40649;SDS011;26342;42.826;23.992;2022-11-15T06:41:24;7.05;;;0.90;;
40649;SDS011;26342;42.826;23.992;2022-11-15T06:43:50;1.33;;;0.68;;
40649;SDS011;26342;42.826;23.992;2022-11-15T06:46:15;2.65;;;0.40;;
40649;SDS011;26342;42.826;23.992;2022-11-15T06:48:41;4.95;;;1.45;;
40649;SDS011;26342;42.826;23.992;2022-11-15T06:51:06;1.27;;;1.02;;
40649;SDS011;26342;42.826;23.992;2022-11-15T06:53:32;3.03;;;2.10;;
40649;SDS011;26342;42.826;23.992;2022-11-15T06:55:58;4.45;;;2.00;;
40649;SDS011;26342;42.826;23.992;2022-11-15T06:58:28;3.30;;;2.75;;
40649;SDS011;26342;42.826;23.992;2022-11-15T07:00:53;3.92;;;3.33;;
40649;SDS011;26342;42.826;23.992;2022-11-15T07:03:22;2.60;;;2.38;;
40649;SDS011;26342;42.826;23.992;2022-11-15T07:05:52;3.35;;;1.65;;
40649;SDS011;26342;42.826;23.992;2022-11-15T07:08:21;4.40;;;2.38;;
40649;SDS011;26342;42.826;23.992;2022-11-15T07:10:47;1.42;;;1.33;;
40649;SDS011;26342;42.826;23.992;2022-11-15T07:13:13;2.90;;;1.60;;
40649;SDS011;26342;42.826;23.992;2022-11-15T07:15:39;0.88;;;0.80;;
40649;SDS011;26342;42.826;23.992;2022-11-15T07:18:04;5.22;;;1.92;;
40649;SDS011;26342;42.826;23.992;2022-11-15T07:20:29;2.78;;;1.70;;
40649;SDS011;26342;42.826;23.992;2022-11-15T07:23:02;2.58;;;2.38;;
40649;SDS011;26342;42.826;23.992;2022-11-15T07:25:30;5.18;;;2.00;;
40649;SDS011;26342;42.826;23.992;2022-11-15T07:27:56;1.88;;;1.60;;
40649;SDS011;26342;42.826;23.992;2022-11-15T07:30:22;2.20;;;1.33;;
40649;SDS011;26342;42.826;23.992;2022-11-15T07:32:52;2.35;;;1.58;;
40649;SDS011;26342;42.826;23.992;2022-11-15T07:35:25;8.98;;;3.85;;
40649;SDS011;26342;42.826;23.992;2022-11-15T07:40:28;2.45;;;1.77;;
40649;SDS011;26342;42.826;23.992;2022-11-15T07:43:01;6.90;;;2.63;;
40649;SDS011;26342;42.826;23.992;2022-11-15T07:45:28;6.68;;;3.40;;
40649;SDS011;26342;42.826;23.992;2022-11-15T07:47:54;2.42;;;2.10;;
40649;SDS011;26342;42.826;23.992;2022-11-15T07:50:21;3.80;;;2.53;;
40649;SDS011;26342;42.826;23.992;2022-11-15T07:52:50;4.13;;;3.30;;
40649;SDS011;26342;42.826;23.992;2022-11-15T07:55:18;4.30;;;3.08;;
40649;SDS011;26342;42.826;23.992;2022-11-15T07:57:44;9.32;;;3.10;;
40649;SDS011;26342;42.826;23.992;2022-11-15T08:00:09;11.82;;;4.53;;
40649;SDS011;26342;42.826;23.992;2022-11-15T08:02:35;3.85;;;2.55;;
40649;SDS011;26342;42.826;23.992;2022-11-15T08:05:01;1.95;;;1.65;;
40649;SDS011;26342;42.826;23.992;2022-11-15T08:07:28;6.68;;;2.53;;
40649;SDS011;26342;42.826;23.992;2022-11-15T08:09:54;1.20;;;1.13;;
40649;SDS011;26342;42.826;23.992;2022-11-15T08:12:20;1.90;;;1.80;;
40649;SDS011;26342;42.826;23.992;2022-11-15T08:14:46;7.65;;;3.97;;
40649;SDS011;26342;42.826;23.992;2022-11-15T08:17:12;3.70;;;2.67;;
40649;SDS011;26342;42.826;23.992;2022-11-15T08:19:37;5.30;;;2.70;;
40649;SDS011;26342;42.826;23.992;2022-11-15T08:22:02;10.52;;;6.10;;
40649;SDS011;26342;42.826;23.992;2022-11-15T08:24:28;11.43;;;7.35;;
40649;SDS011;26342;42.826;23.992;2022-11-15T08:26:53;9.25;;;5.65;;
40649;SDS011;26342;42.826;23.992;2022-11-15T08:29:19;5.47;;;3.75;;
40649;SDS011;26342;42.826;23.992;2022-11-15T08:31:44;4.68;;;3.45;;
40649;SDS011;26342;42.826;23.992;2022-11-15T08:34:10;4.55;;;3.88;;
40649;SDS011;26342;42.826;23.992;2022-11-15T08:36:35;2.45;;;2.15;;
40649;SDS011;26342;42.826;23.992;2022-11-15T08:39:01;7.40;;;3.10;;
40649;SDS011;26342;42.826;23.992;2022-11-15T08:41:34;10.52;;;3.60;;
40649;SDS011;26342;42.826;23.992;2022-11-15T08:44:02;6.53;;;3.03;;
40649;SDS011;26342;42.826;23.992;2022-11-15T08:46:27;2.13;;;1.38;;
40649;SDS011;26342;42.826;23.992;2022-11-15T08:48:52;3.72;;;1.35;;
40649;SDS011;26342;42.826;23.992;2022-11-15T08:51:18;2.65;;;2.45;;
40649;SDS011;26342;42.826;23.992;2022-11-15T08:53:44;5.03;;;2.13;;
40649;SDS011;26342;42.826;23.992;2022-11-15T08:56:10;4.55;;;2.60;;
40649;SDS011;26342;42.826;23.992;2022-11-15T08:58:36;14.10;;;3.22;;
40649;SDS011;26342;42.826;23.992;2022-11-15T09:01:02;3.40;;;2.90;;
40649;SDS011;26342;42.826;23.992;2022-11-15T09:03:29;4.38;;;2.72;;
40649;SDS011;26342;42.826;23.992;2022-11-15T09:05:55;12.88;;;5.40;;
40649;SDS011;26342;42.826;23.992;2022-11-15T09:08:22;4.32;;;2.58;;
40649;SDS011;26342;42.826;23.992;2022-11-15T09:10:47;5.07;;;3.72;;
40649;SDS011;26342;42.826;23.992;2022-11-15T09:13:12;3.38;;;3.03;;
40649;SDS011;26342;42.826;23.992;2022-11-15T09:15:38;5.85;;;3.38;;
40649;SDS011;26342;42.826;23.992;2022-11-15T09:18:04;4.20;;;3.47;;
40649;SDS011;26342;42.826;23.992;2022-11-15T09:20:29;8.88;;;5.40;;
40649;SDS011;26342;42.826;23.992;2022-11-15T09:22:58;4.82;;;3.45;;
40649;SDS011;26342;42.826;23.992;2022-11-15T09:25:25;9.27;;;4.72;;
40649;SDS011;26342;42.826;23.992;2022-11-15T09:27:50;4.13;;;2.72;;
40649;SDS011;26342;42.826;23.992;2022-11-15T09:30:15;10.38;;;3.47;;
40649;SDS011;26342;42.826;23.992;2022-11-15T09:32:41;3.03;;;1.67;;
40649;SDS011;26342;42.826;23.992;2022-11-15T09:35:06;2.85;;;2.42;;
40649;SDS011;26342;42.826;23.992;2022-11-15T09:37:32;2.97;;;2.75;;
40649;SDS011;26342;42.826;23.992;2022-11-15T09:39:57;2.58;;;2.08;;
40649;SDS011;26342;42.826;23.992;2022-11-15T09:51:12;1.90;;;1.77;;
40649;SDS011;26342;42.826;23.992;2022-11-15T09:53:32;1.57;;;1.47;;
40649;SDS011;26342;42.826;23.992;2022-11-15T09:56:12;2.10;;;1.95;;
40649;SDS011;26342;42.826;23.992;2022-11-15T10:04:26;3.38;;;1.40;;
40649;SDS011;26342;42.826;23.992;2022-11-15T10:09:42;1.13;;;1.02;;
40649;SDS011;26342;42.826;23.992;2022-11-15T10:12:17;4.20;;;1.75;;
40649;SDS011;26342;42.826;23.992;2022-11-15T10:14:42;1.00;;;0.63;;
40649;SDS011;26342;42.826;23.992;2022-11-15T10:23:01;4.28;;;1.67;;
40649;SDS011;26342;42.826;23.992;2022-11-15T10:25:34;1.50;;;1.08;;
40649;SDS011;26342;42.826;23.992;2022-11-15T10:30:32;11.52;;;5.00;;
40649;SDS011;26342;42.826;23.992;2022-11-15T10:33:08;3.13;;;1.65;;
40649;SDS011;26342;42.826;23.992;2022-11-15T10:35:42;1.23;;;1.13;;
40649;SDS011;26342;42.826;23.992;2022-11-15T10:38:09;3.42;;;2.78;;
40649;SDS011;26342;42.826;23.992;2022-11-15T10:40:36;4.78;;;2.05;;
40649;SDS011;26342;42.826;23.992;2022-11-15T10:43:12;2.03;;;1.10;;
40649;SDS011;26342;42.826;23.992;2022-11-15T10:45:40;6.78;;;2.90;;
40649;SDS011;26342;42.826;23.992;2022-11-15T10:50:37;2.03;;;1.92;;
40649;SDS011;26342;42.826;23.992;2022-11-15T10:53:21;4.65;;;1.95;;
40649;SDS011;26342;42.826;23.992;2022-11-15T10:55:47;1.77;;;1.13;;
40649;SDS011;26342;42.826;23.992;2022-11-15T11:01:24;1.42;;;0.95;;
40649;SDS011;26342;42.826;23.992;2022-11-15T11:04:24;0.85;;;0.85;;
40649;SDS011;26342;42.826;23.992;2022-11-15T11:09:56;5.05;;;2.28;;
40649;SDS011;26342;42.826;23.992;2022-11-15T11:12:11;1.52;;;0.95;;
40649;SDS011;26342;42.826;23.992;2022-11-15T11:14:38;2.15;;;1.85;;
40649;SDS011;26342;42.826;23.992;2022-11-15T11:17:25;6.88;;;1.20;;
40649;SDS011;26342;42.826;23.992;2022-11-15T11:23:06;1.55;;;1.35;;
40649;SDS011;26342;42.826;23.992;2022-11-15T11:26:01;2.00;;;1.80;;
40649;SDS011;26342;42.826;23.992;2022-11-15T11:45:15;4.30;;;2.03;;
40649;SDS011;26342;42.826;23.992;2022-11-15T11:48:04;2.05;;;1.20;;
40649;SDS011;26342;42.826;23.992;2022-11-15T11:50:39;2.03;;;1.60;;
40649;SDS011;26342;42.826;23.992;2022-11-15T12:00:35;2.05;;;1.33;;
40649;SDS011;26342;42.826;23.992;2022-11-15T12:05:59;0.98;;;0.85;;
40649;SDS011;26342;42.826;23.992;2022-11-15T12:14:29;0.85;;;0.80;;
40649;SDS011;26342;42.826;23.992;2022-11-15T12:17:00;0.80;;;0.80;;
40649;SDS011;26342;42.826;23.992;2022-11-15T12:19:26;6.22;;;2.20;;
40649;SDS011;26342;42.826;23.992;2022-11-15T12:29:39;6.95;;;4.65;;
40649;SDS011;26342;42.826;23.992;2022-11-15T12:32:21;4.07;;;2.70;;
40649;SDS011;26342;42.826;23.992;2022-11-15T12:34:52;2.17;;;1.55;;
40649;SDS011;26342;42.826;23.992;2022-11-15T12:40:22;1.90;;;1.73;;
40649;SDS011;26342;42.826;23.992;2022-11-15T12:45:42;2.53;;;2.33;;
40649;SDS011;26342;42.826;23.992;2022-11-15T13:06:55;5.95;;;1.15;;
40649;SDS011;26342;42.826;23.992;2022-11-15T13:12:10;1.58;;;1.13;;
40649;SDS011;26342;42.826;23.992;2022-11-15T13:14:57;2.97;;;2.10;;
40649;SDS011;26342;42.826;23.992;2022-11-15T13:28:45;1.83;;;1.00;;
40649;SDS011;26342;42.826;23.992;2022-11-15T13:31:30;3.33;;;1.48;;
40649;SDS011;26342;42.826;23.992;2022-11-15T13:34:03;4.03;;;1.90;;
40649;SDS011;26342;42.826;23.992;2022-11-15T13:36:41;2.33;;;2.13;;
40649;SDS011;26342;42.826;23.992;2022-11-15T13:39:51;2.22;;;1.35;;
40649;SDS011;26342;42.826;23.992;2022-11-15T13:41:57;1.75;;;1.65;;
40649;SDS011;26342;42.826;23.992;2022-11-15T13:44:25;3.92;;;2.08;;
40649;SDS011;26342;42.826;23.992;2022-11-15T13:47:07;0.63;;;0.63;;
40649;SDS011;26342;42.826;23.992;2022-11-15T13:49:39;1.75;;;1.35;;
40649;SDS011;26342;42.826;23.992;2022-11-15T13:52:05;2.13;;;1.23;;
40649;SDS011;26342;42.826;23.992;2022-11-15T13:54:34;1.10;;;1.00;;
40649;SDS011;26342;42.826;23.992;2022-11-15T13:57:18;2.10;;;1.77;;
40649;SDS011;26342;42.826;23.992;2022-11-15T13:59:50;4.80;;;1.95;;
40649;SDS011;26342;42.826;23.992;2022-11-15T14:02:18;3.10;;;2.38;;
40649;SDS011;26342;42.826;23.992;2022-11-15T14:04:53;4.65;;;2.17;;
40649;SDS011;26342;42.826;23.992;2022-11-15T14:07:22;3.63;;;1.97;;
40649;SDS011;26342;42.826;23.992;2022-11-15T14:09:50;1.67;;;1.58;;
40649;SDS011;26342;42.826;23.992;2022-11-15T14:12:30;4.60;;;2.25;;
40649;SDS011;26342;42.826;23.992;2022-11-15T14:15:24;2.88;;;2.10;;
40649;SDS011;26342;42.826;23.992;2022-11-15T14:17:48;1.70;;;0.82;;
40649;SDS011;26342;42.826;23.992;2022-11-15T14:22:52;1.40;;;0.98;;
40649;SDS011;26342;42.826;23.992;2022-11-15T14:25:23;2.08;;;1.05;;
40649;SDS011;26342;42.826;23.992;2022-11-15T14:30:37;2.13;;;1.55;;
40649;SDS011;26342;42.826;23.992;2022-11-15T14:36:17;1.50;;;1.40;;
40649;SDS011;26342;42.826;23.992;2022-11-15T14:38:44;1.98;;;1.77;;
40649;SDS011;26342;42.826;23.992;2022-11-15T14:41:23;7.13;;;2.50;;
40649;SDS011;26342;42.826;23.992;2022-11-15T14:43:51;11.45;;;3.83;;
40649;SDS011;26342;42.826;23.992;2022-11-15T14:46:17;7.55;;;4.90;;
40649;SDS011;26342;42.826;23.992;2022-11-15T14:48:43;5.13;;;4.70;;
40649;SDS011;26342;42.826;23.992;2022-11-15T14:51:12;3.70;;;3.40;;
40649;SDS011;26342;42.826;23.992;2022-11-15T14:53:39;5.68;;;3.53;;
40649;SDS011;26342;42.826;23.992;2022-11-15T14:56:06;4.03;;;3.50;;
40649;SDS011;26342;42.826;23.992;2022-11-15T14:58:31;4.75;;;3.03;;
40649;SDS011;26342;42.826;23.992;2022-11-15T15:00:57;2.83;;;2.30;;
40649;SDS011;26342;42.826;23.992;2022-11-15T15:03:22;1.45;;;1.23;;
40649;SDS011;26342;42.826;23.992;2022-11-15T15:05:47;3.25;;;2.92;;
40649;SDS011;26342;42.826;23.992;2022-11-15T15:08:13;7.45;;;4.85;;
40649;SDS011;26342;42.826;23.992;2022-11-15T15:10:39;11.30;;;7.25;;
40649;SDS011;26342;42.826;23.992;2022-11-15T15:13:25;7.72;;;3.47;;
40649;SDS011;26342;42.826;23.992;2022-11-15T15:15:51;5.22;;;3.30;;
40649;SDS011;26342;42.826;23.992;2022-11-15T15:18:17;8.27;;;4.28;;
40649;SDS011;26342;42.826;23.992;2022-11-15T15:20:44;5.68;;;3.55;;
40649;SDS011;26342;42.826;23.992;2022-11-15T15:23:19;8.00;;;3.72;;
40649;SDS011;26342;42.826;23.992;2022-11-15T15:25:46;3.75;;;2.75;;
40649;SDS011;26342;42.826;23.992;2022-11-15T15:28:13;3.53;;;3.22;;
40649;SDS011;26342;42.826;23.992;2022-11-15T15:30:39;2.50;;;2.30;;
40649;SDS011;26342;42.826;23.992;2022-11-15T15:33:05;2.50;;;1.83;;
40649;SDS011;26342;42.826;23.992;2022-11-15T15:35:32;5.70;;;3.58;;
40649;SDS011;26342;42.826;23.992;2022-11-15T15:37:58;3.97;;;3.17;;
40649;SDS011;26342;42.826;23.992;2022-11-15T15:40:24;2.47;;;2.28;;
40649;SDS011;26342;42.826;23.992;2022-11-15T15:42:52;3.67;;;2.28;;
40649;SDS011;26342;42.826;23.992;2022-11-15T15:45:18;7.03;;;3.50;;
40649;SDS011;26342;42.826;23.992;2022-11-15T15:47:44;2.97;;;1.75;;
40649;SDS011;26342;42.826;23.992;2022-11-15T15:52:41;2.45;;;1.98;;
40649;SDS011;26342;42.826;23.992;2022-11-15T15:55:06;10.05;;;2.92;;
40649;SDS011;26342;42.826;23.992;2022-11-15T15:57:32;6.68;;;3.58;;
40649;SDS011;26342;42.826;23.992;2022-11-15T15:59:57;6.57;;;3.83;;
40649;SDS011;26342;42.826;23.992;2022-11-15T16:02:23;4.97;;;3.22;;
40649;SDS011;26342;42.826;23.992;2022-11-15T16:04:48;6.28;;;2.90;;
40649;SDS011;26342;42.826;23.992;2022-11-15T16:07:19;6.65;;;3.88;;
40649;SDS011;26342;42.826;23.992;2022-11-15T16:09:48;11.85;;;8.00;;
40649;SDS011;26342;42.826;23.992;2022-11-15T16:12:32;19.70;;;10.20;;
40649;SDS011;26342;42.826;23.992;2022-11-15T16:14:59;12.65;;;6.95;;
40649;SDS011;26342;42.826;23.992;2022-11-15T16:17:26;4.40;;;3.60;;
40649;SDS011;26342;42.826;23.992;2022-11-15T16:19:55;3.03;;;2.67;;
40649;SDS011;26342;42.826;23.992;2022-11-15T16:22:20;5.05;;;2.40;;
40649;SDS011;26342;42.826;23.992;2022-11-15T16:24:46;4.15;;;3.58;;
40649;SDS011;26342;42.826;23.992;2022-11-15T16:27:15;5.63;;;4.22;;
40649;SDS011;26342;42.826;23.992;2022-11-15T16:29:42;5.55;;;5.03;;
40649;SDS011;26342;42.826;23.992;2022-11-15T16:32:08;3.75;;;3.15;;
40649;SDS011;26342;42.826;23.992;2022-11-15T16:34:33;2.75;;;1.55;;
40649;SDS011;26342;42.826;23.992;2022-11-15T16:36:59;5.30;;;4.38;;
40649;SDS011;26342;42.826;23.992;2022-11-15T16:39:24;4.05;;;3.13;;
40649;SDS011;26342;42.826;23.992;2022-11-15T16:41:49;7.88;;;2.67;;
40649;SDS011;26342;42.826;23.992;2022-11-15T16:44:15;5.38;;;2.85;;
40649;SDS011;26342;42.826;23.992;2022-11-15T16:46:43;8.20;;;3.65;;
40649;SDS011;26342;42.826;23.992;2022-11-15T16:49:15;12.43;;;3.85;;
40649;SDS011;26342;42.826;23.992;2022-11-15T16:51:46;6.38;;;4.53;;
40649;SDS011;26342;42.826;23.992;2022-11-15T16:54:13;7.15;;;5.07;;
40649;SDS011;26342;42.826;23.992;2022-11-15T16:56:39;3.63;;;3.25;;
40649;SDS011;26342;42.826;23.992;2022-11-15T16:59:05;1.83;;;1.73;;
40649;SDS011;26342;42.826;23.992;2022-11-15T17:01:32;4.13;;;3.08;;
40649;SDS011;26342;42.826;23.992;2022-11-15T17:04:00;7.32;;;2.42;;
40649;SDS011;26342;42.826;23.992;2022-11-15T17:06:47;2.38;;;1.58;;
40649;SDS011;26342;42.826;23.992;2022-11-15T17:09:14;2.25;;;2.08;;